Time;durP1;ratioP1;P1;durP2;ratioP2;P2;SDS_P1;SDS_P2;PMS_P1;PMS_P2;Temp;Humidity;BMP_temperature;BMP_pressure;BME280_temperature;BME280_humidity;BME280_pressure;Samples;Min_cycle;Max_cycle;Signal;HPM_P1;HPM_P2
2022/06/02 00:02:06;;;;;;;58.87;2.73;;;;;;;;;;5077190;28;20432;-80
2022/06/02 00:04:37;;;;;;;59.00;3.10;;;;;;;;;;5077467;28;20422;-80
2022/06/02 00:07:07;;;;;;;58.73;2.90;;;;;;;;;;5077097;28;20483;-80
2022/06/02 00:09:45;;;;;;;58.93;2.93;;;;;;;;;;5077695;28;20482;-81
2022/06/02 00:12:14;;;;;;;58.80;3.00;;;;;;;;;;5071090;28;20453;-80
2022/06/02 00:14:49;;;;;;;59.20;3.30;;;;;;;;;;5077176;28;20486;-80
2022/06/02 00:17:23;;;;;;;58.57;3.10;;;;;;;;;;5077715;28;20506;-80
2022/06/02 00:19:53;;;;;;;58.73;2.70;;;;;;;;;;5078205;28;20493;-80
2022/06/02 00:22:24;;;;;;;58.97;2.80;;;;;;;;;;5078781;28;20510;-80
2022/06/02 00:24:55;;;;;;;58.77;2.53;;;;;;;;;;5078962;28;20439;-80
2022/06/02 00:27:25;;;;;;;61.17;2.80;;;;;;;;;;5077742;28;20423;-81
2022/06/02 00:29:57;;;;;;;58.87;3.00;;;;;;;;;;5078506;28;20455;-80
2022/06/02 00:32:31;;;;;;;59.03;2.63;;;;;;;;;;5078380;28;20470;-80
2022/06/02 00:35:05;;;;;;;58.57;2.63;;;;;;;;;;5078755;28;20823;-80
2022/06/02 00:37:36;;;;;;;58.93;3.13;;;;;;;;;;5078286;28;20432;-80
2022/06/02 00:40:04;;;;;;;58.97;2.90;;;;;;;;;;5070089;28;20456;-80
2022/06/02 00:42:35;;;;;;;58.97;3.10;;;;;;;;;;5078559;28;20509;-80
2022/06/02 00:45:05;;;;;;;59.20;3.13;;;;;;;;;;5070098;28;20850;-80
2022/06/02 00:47:39;;;;;;;58.80;2.60;;;;;;;;;;5078620;28;21034;-80
2022/06/02 00:50:10;;;;;;;58.83;2.80;;;;;;;;;;5078691;28;20963;-81
2022/06/02 00:52:42;;;;;;;59.07;3.13;;;;;;;;;;5078123;28;20435;-80
2022/06/02 00:58:06;;;;;;;59.20;3.20;;;;;;;;;;5076879;28;20427;-81
2022/06/02 01:00:37;;;;;;;58.93;2.93;;;;;;;;;;5077679;28;21057;-80
2022/06/02 01:03:08;;;;;;;60.10;3.00;;;;;;;;;;5078173;28;20428;-81
2022/06/02 01:05:40;;;;;;;58.73;3.00;;;;;;;;;;5078070;28;20493;-80
2022/06/02 01:08:14;;;;;;;58.87;2.83;;;;;;;;;;5078219;28;20519;-81
2022/06/02 01:10:59;;;;;;;59.00;2.80;;;;;;;;;;5078045;28;20555;-80
2022/06/02 01:13:34;;;;;;;58.87;2.97;;;;;;;;;;5077645;28;20440;-81
2022/06/02 01:16:04;;;;;;;58.90;3.00;;;;;;;;;;5078676;28;20427;-81
2022/06/02 01:18:43;;;;;;;59.17;3.00;;;;;;;;;;5078063;28;20439;-81
2022/06/02 01:21:34;;;;;;;58.97;2.73;;;;;;;;;;5078362;28;20502;-81
2022/06/02 01:24:12;;;;;;;58.60;2.70;;;;;;;;;;5078035;28;20494;-81
2022/06/02 01:27:07;;;;;;;59.53;3.17;;;;;;;;;;5077833;28;20435;-81
2022/06/02 01:29:53;;;;;;;59.20;2.97;;;;;;;;;;5078234;28;20463;-81
2022/06/02 01:32:26;;;;;;;59.07;2.97;;;;;;;;;;5077755;28;20436;-80
2022/06/02 01:34:59;;;;;;;59.03;3.00;;;;;;;;;;5078007;28;20517;-81
2022/06/02 01:37:30;;;;;;;58.77;2.90;;;;;;;;;;5078035;28;20427;-80
2022/06/02 01:40:03;;;;;;;59.00;3.00;;;;;;;;;;5077437;28;20483;-81
2022/06/02 01:42:37;;;;;;;58.80;2.90;;;;;;;;;;5078541;28;20499;-81
2022/06/02 01:45:09;;;;;;;61.20;3.03;;;;;;;;;;5077517;28;20440;-80
2022/06/02 01:47:40;;;;;;;58.60;3.00;;;;;;;;;;5075297;28;20506;-81
2022/06/02 01:50:15;;;;;;;58.97;3.00;;;;;;;;;;5077666;28;20467;-80
2022/06/02 01:52:51;;;;;;;58.93;3.27;;;;;;;;;;5078012;28;20435;-80
2022/06/02 01:55:29;;;;;;;63.47;3.17;;;;;;;;;;5077611;28;20509;-81
2022/06/02 01:58:02;;;;;;;59.60;3.20;;;;;;;;;;5077349;28;20439;-81
2022/06/02 02:00:32;;;;;;;59.10;3.10;;;;;;;;;;5077097;28;20451;-81
2022/06/02 02:03:06;;;;;;;59.17;3.13;;;;;;;;;;5078204;28;20443;-81
2022/06/02 02:05:39;;;;;;;59.60;3.30;;;;;;;;;;5071526;28;20447;-81
2022/06/02 02:08:20;;;;;;;59.17;3.30;;;;;;;;;;5072535;28;20416;-81
2022/06/02 02:10:56;;;;;;;59.00;3.00;;;;;;;;;;5076119;28;20459;-80
2022/06/02 02:13:26;;;;;;;59.67;3.50;;;;;;;;;;5076205;28;20435;-81
2022/06/02 02:15:59;;;;;;;59.10;2.90;;;;;;;;;;5076292;28;20533;-81
2022/06/02 02:18:37;;;;;;;58.97;3.33;;;;;;;;;;5076530;28;20439;-81
2022/06/02 02:21:14;;;;;;;59.70;3.10;;;;;;;;;;5077228;28;20462;-80
2022/06/02 02:23:45;;;;;;;59.17;3.40;;;;;;;;;;5077751;28;20478;-80
2022/06/02 02:26:15;;;;;;;59.07;3.17;;;;;;;;;;5077644;28;20490;-81
2022/06/02 02:28:50;;;;;;;58.80;2.90;;;;;;;;;;5077740;28;20431;-81
2022/06/02 02:31:22;;;;;;;59.43;3.43;;;;;;;;;;5078261;28;20450;-80
2022/06/02 02:33:54;;;;;;;58.97;3.40;;;;;;;;;;5078149;28;20435;-80
2022/06/02 02:36:25;;;;;;;58.73;3.00;;;;;;;;;;5078246;28;20491;-80
2022/06/02 02:38:55;;;;;;;59.67;3.30;;;;;;;;;;5078255;28;20542;-81
2022/06/02 02:41:26;;;;;;;59.50;3.30;;;;;;;;;;5077982;28;20514;-81
2022/06/02 02:43:56;;;;;;;58.73;2.90;;;;;;;;;;5077909;28;20454;-80
2022/06/02 02:46:26;;;;;;;59.30;3.33;;;;;;;;;;5079591;28;20875;-80
2022/06/02 02:48:57;;;;;;;59.27;3.40;;;;;;;;;;5078459;28;20458;-81
2022/06/02 02:51:31;;;;;;;58.67;2.97;;;;;;;;;;5078750;28;21038;-80
2022/06/02 02:54:01;;;;;;;59.20;3.37;;;;;;;;;;5078904;28;20470;-81
2022/06/02 02:56:31;;;;;;;61.00;3.67;;;;;;;;;;5077927;28;20459;-81
2022/06/02 02:59:03;;;;;;;58.83;2.80;;;;;;;;;;5078052;28;20439;-80
2022/06/02 03:01:35;;;;;;;59.67;3.37;;;;;;;;;;5078563;28;20463;-80
2022/06/02 03:04:13;;;;;;;59.00;3.23;;;;;;;;;;5078588;28;20442;-80
2022/06/02 03:06:42;;;;;;;58.97;2.80;;;;;;;;;;5078983;28;20506;-80
2022/06/02 03:09:11;;;;;;;59.07;3.40;;;;;;;;;;5078508;28;20447;-79
2022/06/02 03:11:59;;;;;;;59.40;3.47;;;;;;;;;;5078659;28;20443;-80
2022/06/02 03:14:31;;;;;;;59.40;3.60;;;;;;;;;;5078226;28;20825;-81
2022/06/02 03:17:05;;;;;;;59.90;3.60;;;;;;;;;;5078717;28;20927;-81
2022/06/02 03:19:37;;;;;;;59.57;3.40;;;;;;;;;;5077981;28;20478;-80
2022/06/02 03:22:09;;;;;;;59.10;3.40;;;;;;;;;;5079590;28;20467;-80
2022/06/02 03:24:50;;;;;;;59.83;3.50;;;;;;;;;;5080391;28;20446;-81
2022/06/02 03:27:34;;;;;;;58.77;3.10;;;;;;;;;;5079729;28;20446;-80
2022/06/02 03:30:12;;;;;;;59.40;3.50;;;;;;;;;;5072493;28;20955;-80
2022/06/02 03:32:49;;;;;;;59.40;3.47;;;;;;;;;;5080364;28;20451;-80
2022/06/02 03:35:24;;;;;;;59.00;3.17;;;;;;;;;;5080564;28;20513;-80
2022/06/02 03:37:55;;;;;;;59.93;3.30;;;;;;;;;;5080219;28;20455;-80
2022/06/02 03:40:29;;;;;;;60.00;3.63;;;;;;;;;;5080509;28;20982;-81
2022/06/02 03:42:59;;;;;;;59.90;3.40;;;;;;;;;;5079727;28;20489;-81
2022/06/02 03:45:33;;;;;;;59.67;3.40;;;;;;;;;;5080042;28;20443;-81
2022/06/02 03:48:10;;;;;;;59.10;3.00;;;;;;;;;;5079876;28;20507;-80
2022/06/02 03:50:49;;;;;;;59.53;3.53;;;;;;;;;;5080646;28;20475;-81
2022/06/02 03:53:27;;;;;;;59.27;3.40;;;;;;;;;;5080354;28;20490;-80
2022/06/02 03:56:00;;;;;;;59.77;3.27;;;;;;;;;;5079318;28;20486;-80
2022/06/02 03:58:37;;;;;;;59.50;3.23;;;;;;;;;;5079598;28;20944;-81
2022/06/02 04:01:06;;;;;;;58.90;3.10;;;;;;;;;;5080172;28;20490;-80
2022/06/02 04:03:44;;;;;;;59.03;3.37;;;;;;;;;;5079856;28;20970;-80
2022/06/02 04:06:15;;;;;;;59.60;3.87;;;;;;;;;;5080263;28;20517;-80
2022/06/02 04:08:54;;;;;;;59.27;3.27;;;;;;;;;;5078684;28;20944;-79
2022/06/02 04:11:28;;;;;;;59.10;3.47;;;;;;;;;;5078360;28;20454;-79
2022/06/02 04:14:04;;;;;;;59.20;3.50;;;;;;;;;;5079372;28;20431;-80
2022/06/02 04:16:46;;;;;;;60.07;4.27;;;;;;;;;;5079520;28;20483;-80
2022/06/02 04:22:18;;;;;;;58.87;3.30;;;;;;;;;;5080047;28;20439;-80
2022/06/02 04:24:50;;;;;;;59.37;3.50;;;;;;;;;;5092435;28;20419;-79
2022/06/02 04:27:19;;;;;;;58.80;3.20;;;;;;;;;;5090417;28;20447;-79
2022/06/02 04:29:56;;;;;;;59.20;3.40;;;;;;;;;;5094491;28;20486;-80
2022/06/02 04:32:26;;;;;;;59.20;2.97;;;;;;;;;;5092862;28;20435;-81
2022/06/02 04:34:57;;;;;;;68.00;3.47;;;;;;;;;;5083229;28;20428;-81
2022/06/02 04:37:32;;;;;;;60.27;3.37;;;;;;;;;;5076799;28;20491;-81
2022/06/02 04:40:04;;;;;;;58.97;3.07;;;;;;;;;;5077843;28;20466;-81
2022/06/02 04:42:35;;;;;;;59.80;3.43;;;;;;;;;;5078543;28;20534;-81
2022/06/02 04:45:09;;;;;;;59.40;3.20;;;;;;;;;;5077858;28;20487;-81
2022/06/02 04:47:41;;;;;;;59.53;3.53;;;;;;;;;;5075100;28;20467;-79
2022/06/02 04:50:13;;;;;;;59.43;3.37;;;;;;;;;;5058022;28;20475;-81
2022/06/02 04:52:48;;;;;;;59.60;3.50;;;;;;;;;;5075898;28;20415;-81
2022/06/02 04:55:18;;;;;;;59.87;4.03;;;;;;;;;;5076397;28;20551;-81
2022/06/02 04:57:48;;;;;;;59.07;3.30;;;;;;;;;;5075937;28;20981;-80
2022/06/02 05:00:20;;;;;;;59.50;3.40;;;;;;;;;;5075719;28;20471;-80
2022/06/02 05:02:55;;;;;;;59.17;3.20;;;;;;;;;;5075094;28;20451;-80
2022/06/02 05:05:27;;;;;;;59.37;3.27;;;;;;;;;;5076167;28;20549;-80
2022/06/02 05:08:09;;;;;;;59.20;3.47;;;;;;;;;;5076193;28;20792;-80
2022/06/02 05:10:42;;;;;;;58.97;3.30;;;;;;;;;;5074998;28;20486;-81
2022/06/02 05:13:14;;;;;;;59.90;3.53;;;;;;;;;;5076849;28;20517;-81
2022/06/02 05:15:56;;;;;;;64.00;3.23;;;;;;;;;;5076665;28;20478;-81
2022/06/02 05:18:34;;;;;;;60.07;3.30;;;;;;;;;;5076450;28;20459;-81
2022/06/02 05:21:26;;;;;;;59.03;2.83;;;;;;;;;;5075718;28;20525;-80
2022/06/02 05:24:14;;;;;;;59.40;3.03;;;;;;;;;;5064824;28;20460;-80
2022/06/02 05:27:00;;;;;;;59.10;3.43;;;;;;;;;;5071929;28;20490;-80
2022/06/02 05:29:39;;;;;;;65.63;4.00;;;;;;;;;;5075928;28;20459;-80
2022/06/02 05:32:22;;;;;;;61.10;3.20;;;;;;;;;;5075839;28;20819;-80
2022/06/02 05:35:08;;;;;;;59.07;3.50;;;;;;;;;;5075362;28;20447;-80
2022/06/02 05:37:45;;;;;;;58.90;3.50;;;;;;;;;;5075128;28;20495;-80
2022/06/02 05:40:23;;;;;;;59.30;3.10;;;;;;;;;;5075341;28;20468;-80
2022/06/02 05:42:59;;;;;;;59.00;3.23;;;;;;;;;;5075199;28;20439;-81
2022/06/02 05:45:43;;;;;;;60.20;2.77;;;;;;;;;;5076299;28;20480;-81
2022/06/02 05:48:20;;;;;;;59.40;3.10;;;;;;;;;;5075335;28;20478;-81
2022/06/02 05:50:52;;;;;;;59.47;2.97;;;;;;;;;;5075995;28;20465;-81
2022/06/02 05:53:33;;;;;;;61.50;3.43;;;;;;;;;;5075601;28;20439;-80
2022/06/02 05:56:04;;;;;;;58.47;3.17;;;;;;;;;;5076015;28;20424;-80
2022/06/02 05:58:43;;;;;;;59.83;3.57;;;;;;;;;;5076507;28;20502;-81
2022/06/02 06:01:18;;;;;;;58.97;3.27;;;;;;;;;;5076014;28;20459;-81
2022/06/02 06:04:03;;;;;;;58.70;3.00;;;;;;;;;;5075857;28;20421;-80
2022/06/02 06:06:33;;;;;;;59.00;3.30;;;;;;;;;;5068871;28;20484;-80
2022/06/02 06:09:05;;;;;;;58.50;3.20;;;;;;;;;;5076617;28;21184;-80
2022/06/02 06:11:47;;;;;;;59.10;3.20;;;;;;;;;;5077589;28;20460;-80
2022/06/02 06:14:20;;;;;;;58.57;3.23;;;;;;;;;;5075627;28;20444;-80
2022/06/02 06:16:52;;;;;;;59.17;3.30;;;;;;;;;;5077157;28;20459;-80
2022/06/02 06:19:44;;;;;;;59.20;3.10;;;;;;;;;;5076218;28;20471;-80
2022/06/02 06:22:30;;;;;;;58.70;2.80;;;;;;;;;;5066140;28;20463;-80
2022/06/02 06:25:04;;;;;;;58.93;3.10;;;;;;;;;;5076828;28;20917;-80
2022/06/02 06:27:34;;;;;;;58.90;2.80;;;;;;;;;;5076587;28;20506;-80
2022/06/02 06:30:07;;;;;;;59.93;3.60;;;;;;;;;;5076390;28;20826;-80
2022/06/02 06:32:38;;;;;;;58.90;3.20;;;;;;;;;;5076736;28;20443;-81
2022/06/02 06:35:12;;;;;;;58.87;2.93;;;;;;;;;;5077059;28;20467;-81
2022/06/02 06:37:56;;;;;;;59.10;3.10;;;;;;;;;;5075989;28;20498;-81
2022/06/02 06:40:38;;;;;;;58.63;3.20;;;;;;;;;;5076643;28;20447;-81
2022/06/02 06:43:09;;;;;;;59.30;3.43;;;;;;;;;;5076437;28;20475;-80
2022/06/02 06:45:38;;;;;;;60.90;3.20;;;;;;;;;;5076326;28;20496;-81
2022/06/02 06:48:12;;;;;;;58.60;3.10;;;;;;;;;;5076085;28;20788;-81
2022/06/02 06:50:43;;;;;;;58.73;3.10;;;;;;;;;;5077128;28;20456;-80
2022/06/02 06:53:19;;;;;;;58.83;3.20;;;;;;;;;;5072079;28;20447;-80
2022/06/02 06:55:51;;;;;;;59.30;3.10;;;;;;;;;;5074885;28;20502;-80
2022/06/02 06:58:24;;;;;;;59.13;3.30;;;;;;;;;;5074897;28;20455;-80
2022/06/02 07:00:54;;;;;;;58.77;2.83;;;;;;;;;;5075286;28;21065;-80
2022/06/02 07:03:29;;;;;;;66.33;3.73;;;;;;;;;;5075320;28;20437;-80
2022/06/02 07:05:59;;;;;;;59.60;2.73;;;;;;;;;;5075381;28;20491;-80
2022/06/02 07:08:31;;;;;;;62.27;2.93;;;;;;;;;;5075164;28;20459;-80
2022/06/02 07:11:02;;;;;;;59.20;3.60;;;;;;;;;;5075696;28;20506;-80
2022/06/02 07:13:31;;;;;;;59.50;3.10;;;;;;;;;;5075663;28;20827;-80
2022/06/02 07:16:01;;;;;;;60.57;3.37;;;;;;;;;;5075792;28;20466;-80
2022/06/02 07:18:37;;;;;;;58.40;3.10;;;;;;;;;;5075689;28;20955;-80
2022/06/02 07:21:08;;;;;;;59.10;3.13;;;;;;;;;;5076111;28;20903;-80
2022/06/02 07:23:43;;;;;;;58.90;2.80;;;;;;;;;;5076157;28;20454;-81
2022/06/02 07:26:14;;;;;;;58.50;3.27;;;;;;;;;;5076474;28;20563;-80
2022/06/02 07:28:51;;;;;;;59.23;3.40;;;;;;;;;;5075938;28;20484;-80
2022/06/02 07:31:26;;;;;;;58.60;3.03;;;;;;;;;;5076313;28;20448;-80
2022/06/02 07:33:58;;;;;;;58.87;3.20;;;;;;;;;;5076104;28;20463;-80
2022/06/02 07:36:33;;;;;;;58.70;3.00;;;;;;;;;;5076224;28;20450;-80
2022/06/02 07:39:14;;;;;;;58.67;2.93;;;;;;;;;;5075649;28;20515;-79
2022/06/02 07:41:50;;;;;;;58.40;2.73;;;;;;;;;;5077442;28;20437;-80
2022/06/02 07:44:43;;;;;;;58.60;3.23;;;;;;;;;;5075240;28;20437;-79
2022/06/02 07:47:21;;;;;;;60.50;3.07;;;;;;;;;;5076579;28;20484;-80
2022/06/02 07:49:54;;;;;;;58.43;2.60;;;;;;;;;;5076105;28;20483;-80
2022/06/02 07:52:25;;;;;;;60.80;4.17;;;;;;;;;;5074986;28;20425;-80
2022/06/02 07:54:57;;;;;;;58.97;3.00;;;;;;;;;;5076015;28;20516;-78
2022/06/02 07:57:32;;;;;;;58.47;2.83;;;;;;;;;;5074336;28;20445;-79
2022/06/02 08:00:05;;;;;;;58.23;2.83;;;;;;;;;;5075636;28;20893;-78
2022/06/02 08:02:48;;;;;;;59.27;3.33;;;;;;;;;;5075075;28;20431;-78
2022/06/02 08:05:23;;;;;;;59.60;3.20;;;;;;;;;;5075318;28;20498;-79
2022/06/02 08:07:53;;;;;;;59.00;2.97;;;;;;;;;;5075973;28;20449;-79
2022/06/02 08:10:24;;;;;;;59.10;3.20;;;;;;;;;;5075568;28;20465;-80
2022/06/02 08:12:56;;;;;;;61.30;3.73;;;;;;;;;;5075373;28;20439;-78
2022/06/02 08:15:30;;;;;;;58.57;3.20;;;;;;;;;;5076065;28;20504;-79
2022/06/02 08:17:59;;;;;;;58.93;3.10;;;;;;;;;;5076041;28;20445;-78
2022/06/02 08:20:35;;;;;;;58.60;2.73;;;;;;;;;;5077284;28;20457;-78
2022/06/02 08:23:14;;;;;;;58.47;3.10;;;;;;;;;;5075682;28;20488;-78
2022/06/02 08:25:44;;;;;;;58.60;3.17;;;;;;;;;;5075353;28;20542;-78
2022/06/02 08:28:29;;;;;;;58.60;2.70;;;;;;;;;;5075123;28;20485;-78
2022/06/02 08:31:02;;;;;;;59.10;3.23;;;;;;;;;;5075790;28;20458;-79
2022/06/02 08:33:35;;;;;;;58.47;3.00;;;;;;;;;;5075792;28;20449;-79
2022/06/02 08:36:09;;;;;;;59.50;3.10;;;;;;;;;;5075744;28;20799;-79
2022/06/02 08:38:49;;;;;;;58.90;3.00;;;;;;;;;;5076846;28;20461;-79
2022/06/02 08:41:34;;;;;;;58.67;2.80;;;;;;;;;;5077390;28;20468;-79
2022/06/02 08:44:26;;;;;;;61.13;2.80;;;;;;;;;;5077580;28;20431;-80
2022/06/02 08:47:05;;;;;;;58.57;2.53;;;;;;;;;;5066113;28;20577;-79
2022/06/02 08:49:42;;;;;;;58.40;3.00;;;;;;;;;;5077866;28;20517;-79
2022/06/02 08:52:25;;;;;;;59.00;3.40;;;;;;;;;;5077719;28;20859;-79
2022/06/02 08:55:25;;;;;;;59.17;3.17;;;;;;;;;;5085548;28;20454;-79
2022/06/02 08:58:05;;;;;;;60.80;3.00;;;;;;;;;;5042489;28;20448;-79
2022/06/02 09:00:40;;;;;;;58.40;2.50;;;;;;;;;;5044619;28;20480;-79
2022/06/02 09:03:25;;;;;;;58.40;2.60;;;;;;;;;;5037105;28;20844;-79
2022/06/02 09:06:11;;;;;;;58.53;2.43;;;;;;;;;;5030688;28;20506;-80
2022/06/02 09:08:45;;;;;;;58.47;2.60;;;;;;;;;;5030266;28;20438;-79
2022/06/02 09:11:28;;;;;;;58.87;2.80;;;;;;;;;;5031072;28;20992;-78
2022/06/02 09:14:05;;;;;;;58.47;2.37;;;;;;;;;;5031450;28;20441;-79
2022/06/02 09:16:37;;;;;;;58.90;2.80;;;;;;;;;;5031581;28;20433;-79
2022/06/02 09:19:17;;;;;;;58.50;2.93;;;;;;;;;;5030961;28;21040;-79
2022/06/02 09:21:54;;;;;;;58.80;2.70;;;;;;;;;;5031842;28;20434;-80
2022/06/02 09:24:27;;;;;;;58.50;2.60;;;;;;;;;;5032337;28;20499;-80
2022/06/02 09:26:59;;;;;;;59.20;2.60;;;;;;;;;;5032023;28;20489;-80
2022/06/02 09:29:31;;;;;;;58.30;2.40;;;;;;;;;;5064148;28;20579;-79
2022/06/02 09:32:13;;;;;;;59.20;2.90;;;;;;;;;;5074594;28;20448;-79
2022/06/02 09:34:58;;;;;;;58.53;2.43;;;;;;;;;;5072667;28;20823;-80
2022/06/02 09:37:50;;;;;;;58.50;2.70;;;;;;;;;;5067885;28;20447;-80
2022/06/02 09:40:25;;;;;;;58.63;2.40;;;;;;;;;;5032290;28;21136;-80
2022/06/02 09:43:00;;;;;;;58.57;2.40;;;;;;;;;;5076595;28;20458;-80
2022/06/02 09:45:40;;;;;;;58.53;2.50;;;;;;;;;;5075813;28;20451;-80
2022/06/02 09:48:13;;;;;;;59.00;3.07;;;;;;;;;;5075649;28;20481;-79
2022/06/02 09:50:54;;;;;;;62.50;2.70;;;;;;;;;;5076592;28;20459;-80
2022/06/02 09:53:33;;;;;;;58.30;2.17;;;;;;;;;;5076874;28;20467;-80
2022/06/02 09:56:08;;;;;;;58.10;2.87;;;;;;;;;;5075990;28;20462;-80
2022/06/02 09:58:43;;;;;;;59.30;2.83;;;;;;;;;;5076584;28;20524;-81
2022/06/02 10:01:16;;;;;;;58.80;2.50;;;;;;;;;;5076638;28;20506;-81
2022/06/02 10:03:51;;;;;;;58.37;2.50;;;;;;;;;;5076430;28;20508;-81
2022/06/02 10:06:25;;;;;;;58.37;2.50;;;;;;;;;;5075960;28;20470;-78
2022/06/02 10:09:03;;;;;;;58.27;2.30;;;;;;;;;;5076334;28;20516;-80
2022/06/02 10:11:35;;;;;;;58.10;2.50;;;;;;;;;;5077523;28;20505;-80
2022/06/02 10:14:32;;;;;;;57.90;2.27;;;;;;;;;;5077190;28;20447;-81
2022/06/02 10:17:18;;;;;;;58.47;2.63;;;;;;;;;;5035727;28;20995;-82
2022/06/02 10:20:00;;;;;;;58.07;2.20;;;;;;;;;;5070934;28;20833;-81
2022/06/02 10:22:35;;;;;;;58.30;2.40;;;;;;;;;;5065628;28;20817;-78
2022/06/02 10:25:21;;;;;;;58.23;2.17;;;;;;;;;;5066389;28;20993;-79
2022/06/02 10:28:07;;;;;;;57.93;2.13;;;;;;;;;;5074197;28;20566;-79
2022/06/02 10:31:01;;;;;;;57.90;2.30;;;;;;;;;;5077224;28;20462;-79
2022/06/02 10:33:47;;;;;;;57.80;2.20;;;;;;;;;;5079430;28;20439;-79
2022/06/02 10:36:40;;;;;;;59.80;2.23;;;;;;;;;;5079306;28;20440;-80
2022/06/02 10:39:20;;;;;;;57.40;2.00;;;;;;;;;;5079202;28;20449;-81
2022/06/02 10:41:55;;;;;;;59.60;2.23;;;;;;;;;;5079525;28;20411;-80
2022/06/02 10:44:30;;;;;;;57.47;2.07;;;;;;;;;;5079391;28;20997;-81
2022/06/02 10:47:24;;;;;;;57.90;2.20;;;;;;;;;;5079862;28;20474;-80
2022/06/02 10:49:59;;;;;;;57.50;2.10;;;;;;;;;;5080036;28;20450;-81
2022/06/02 10:52:43;;;;;;;57.47;2.40;;;;;;;;;;5079549;28;20430;-80
2022/06/02 10:55:29;;;;;;;57.67;2.80;;;;;;;;;;5075879;28;20473;-79
2022/06/02 10:58:08;;;;;;;57.20;1.90;;;;;;;;;;5074527;28;20462;-79
2022/06/02 11:00:51;;;;;;;57.37;2.00;;;;;;;;;;5074868;28;20809;-81
2022/06/02 11:03:41;;;;;;;57.47;2.10;;;;;;;;;;5075257;28;20882;-80
2022/06/02 11:06:23;;;;;;;59.10;2.10;;;;;;;;;;5075059;28;20435;-80
2022/06/02 11:09:08;;;;;;;57.37;2.07;;;;;;;;;;5045199;28;20444;-80
2022/06/02 11:12:08;;;;;;;58.47;2.47;;;;;;;;;;5044725;28;20440;-80
2022/06/02 11:14:50;;;;;;;57.47;2.33;;;;;;;;;;5075523;28;20466;-80
2022/06/02 11:17:33;;;;;;;57.10;1.90;;;;;;;;;;5073802;28;20486;-80
2022/06/02 11:20:16;;;;;;;56.97;2.00;;;;;;;;;;5076634;28;20519;-81
2022/06/02 11:22:59;;;;;;;57.27;2.20;;;;;;;;;;5076614;28;20528;-80
2022/06/02 11:25:35;;;;;;;57.27;2.03;;;;;;;;;;5076374;28;20458;-80
2022/06/02 11:28:28;;;;;;;57.87;2.00;;;;;;;;;;5076259;28;20474;-80
2022/06/02 11:31:10;;;;;;;56.93;2.10;;;;;;;;;;5078072;28;20455;-79
2022/06/02 11:33:55;;;;;;;57.80;2.40;;;;;;;;;;5074982;28;20436;-79
2022/06/02 11:36:40;;;;;;;56.90;1.90;;;;;;;;;;5076527;28;20444;-78
2022/06/02 11:39:16;;;;;;;56.87;2.00;;;;;;;;;;5076119;28;20447;-80
2022/06/02 11:41:47;;;;;;;56.93;1.80;;;;;;;;;;5075689;28;20466;-80
2022/06/02 11:44:21;;;;;;;58.53;3.53;;;;;;;;;;5076474;28;20514;-80
2022/06/02 11:47:07;;;;;;;57.30;2.10;;;;;;;;;;5076851;28;20444;-81
2022/06/02 11:49:46;;;;;;;57.23;2.10;;;;;;;;;;5076123;28;20475;-80
2022/06/02 11:52:29;;;;;;;56.90;2.00;;;;;;;;;;5076677;28;20792;-79
2022/06/02 11:55:11;;;;;;;57.70;2.67;;;;;;;;;;5076161;28;20609;-81
2022/06/02 11:57:46;;;;;;;57.40;2.10;;;;;;;;;;5075534;28;20517;-80
2022/06/02 12:00:31;;;;;;;57.43;2.20;;;;;;;;;;5075659;28;21045;-80
2022/06/02 12:03:11;;;;;;;57.47;2.27;;;;;;;;;;5076176;28;20940;-82
2022/06/02 12:05:54;;;;;;;57.27;2.00;;;;;;;;;;5075690;28;20420;-81
2022/06/02 12:08:44;;;;;;;57.17;1.93;;;;;;;;;;5076347;28;20427;-81
2022/06/02 12:11:29;;;;;;;58.67;2.33;;;;;;;;;;5076843;28;20459;-81
2022/06/02 12:14:04;;;;;;;57.27;2.07;;;;;;;;;;5056288;28;20451;-80
2022/06/02 12:16:45;;;;;;;59.10;2.40;;;;;;;;;;5075931;28;20412;-81
2022/06/02 12:19:33;;;;;;;57.47;2.20;;;;;;;;;;5075510;28;20415;-80
2022/06/02 12:22:01;;;;;;;57.60;2.23;;;;;;;;;;5063941;28;20447;-82
2022/06/02 12:24:52;;;;;;;57.63;2.47;;;;;;;;;;5075882;28;20467;-81
2022/06/02 12:27:29;;;;;;;57.57;2.10;;;;;;;;;;5074016;28;20490;-82
2022/06/02 12:30:14;;;;;;;58.20;2.13;;;;;;;;;;5074907;28;20537;-81
2022/06/02 12:32:53;;;;;;;57.77;2.10;;;;;;;;;;5075155;28;20838;-82
2022/06/02 12:35:40;;;;;;;57.97;2.27;;;;;;;;;;5074630;28;20441;-82
2022/06/02 12:38:14;;;;;;;57.70;2.20;;;;;;;;;;5075763;28;20517;-81
2022/06/02 12:40:47;;;;;;;57.37;2.20;;;;;;;;;;5075007;28;20850;-82
2022/06/02 12:43:31;;;;;;;57.80;2.50;;;;;;;;;;5076500;28;20408;-81
2022/06/02 12:46:08;;;;;;;59.97;2.33;;;;;;;;;;5073657;28;20432;-81
2022/06/02 12:48:54;;;;;;;57.80;2.30;;;;;;;;;;5075116;28;20470;-81
2022/06/02 12:51:43;;;;;;;57.87;2.27;;;;;;;;;;5076436;28;20537;-81
2022/06/02 12:54:20;;;;;;;58.10;2.57;;;;;;;;;;5073023;28;20469;-81
2022/06/02 12:57:02;;;;;;;57.90;2.30;;;;;;;;;;5077789;28;20482;-82
2022/06/02 12:59:50;;;;;;;57.67;2.30;;;;;;;;;;5052354;28;20475;-84
2022/06/02 13:02:23;;;;;;;58.17;2.20;;;;;;;;;;5074103;28;20419;-81
2022/06/02 13:05:08;;;;;;;57.77;2.40;;;;;;;;;;5074822;28;20854;-80
2022/06/02 13:08:06;;;;;;;57.47;2.17;;;;;;;;;;5076693;28;20486;-81
2022/06/02 13:10:39;;;;;;;57.87;2.20;;;;;;;;;;5077373;28;20585;-81
2022/06/02 13:13:32;;;;;;;57.60;2.20;;;;;;;;;;5076627;28;20966;-83
2022/06/02 13:16:29;;;;;;;58.97;2.57;;;;;;;;;;5067763;28;20843;-83
2022/06/02 13:19:15;;;;;;;62.90;2.47;;;;;;;;;;5074857;28;20479;-83
2022/06/02 13:22:02;;;;;;;57.73;2.23;;;;;;;;;;5074758;28;20443;-81
2022/06/02 13:24:45;;;;;;;57.47;2.30;;;;;;;;;;5077366;28;20444;-79
2022/06/02 13:27:20;;;;;;;59.20;3.20;;;;;;;;;;5076361;28;20435;-80
2022/06/02 13:30:03;;;;;;;57.30;2.23;;;;;;;;;;5076055;28;20458;-83
2022/06/02 13:32:42;;;;;;;57.43;2.10;;;;;;;;;;5079207;28;20451;-83
2022/06/02 13:35:39;;;;;;;58.10;2.23;;;;;;;;;;5076034;28;20434;-83
2022/06/02 13:38:22;;;;;;;57.73;2.40;;;;;;;;;;5034491;28;20641;-82
2022/06/02 13:40:57;;;;;;;57.50;2.27;;;;;;;;;;5062343;28;20521;-83
2022/06/02 13:43:48;;;;;;;58.07;2.33;;;;;;;;;;5077139;28;20435;-82
2022/06/02 13:46:48;;;;;;;58.00;2.47;;;;;;;;;;5061622;28;20447;-82
2022/06/02 13:49:30;;;;;;;57.63;2.10;;;;;;;;;;5012103;28;20458;-82
2022/06/02 13:52:12;;;;;;;58.30;2.20;;;;;;;;;;5012573;28;20862;-83
2022/06/02 13:57:51;;;;;;;57.80;2.23;;;;;;;;;;5080602;28;20487;-82
2022/06/02 14:00:21;;;;;;;57.83;2.03;;;;;;;;;;5074323;28;20474;-82
2022/06/02 14:03:01;;;;;;;58.07;2.43;;;;;;;;;;5074412;28;20446;-82
2022/06/02 14:05:32;;;;;;;58.40;2.90;;;;;;;;;;5077037;28;20855;-83
2022/06/02 14:08:17;;;;;;;57.77;1.93;;;;;;;;;;5076033;28;20415;-81
2022/06/02 14:10:52;;;;;;;57.60;2.30;;;;;;;;;;5076064;28;21022;-83
2022/06/02 14:13:29;;;;;;;57.80;2.50;;;;;;;;;;5076099;28;20412;-82
2022/06/02 14:16:01;;;;;;;57.97;2.20;;;;;;;;;;5076305;28;20455;-82
2022/06/02 14:18:35;;;;;;;57.67;2.17;;;;;;;;;;5075716;28;20525;-82
2022/06/02 14:21:06;;;;;;;57.60;2.13;;;;;;;;;;5076270;28;20483;-83
2022/06/02 14:23:39;;;;;;;57.53;2.20;;;;;;;;;;5076606;28;20482;-81
2022/06/02 14:26:11;;;;;;;57.40;2.40;;;;;;;;;;5076546;28;20463;-80
2022/06/02 14:28:53;;;;;;;59.40;2.40;;;;;;;;;;5079879;28;20420;-82
2022/06/02 14:31:24;;;;;;;57.37;2.20;;;;;;;;;;5081270;28;20459;-82
2022/06/02 14:33:57;;;;;;;57.43;2.40;;;;;;;;;;5078481;28;20430;-83
2022/06/02 14:36:27;;;;;;;57.33;2.50;;;;;;;;;;5077320;28;20947;-83
2022/06/02 14:39:03;;;;;;;57.80;2.30;;;;;;;;;;5079735;28;20474;-82
2022/06/02 14:41:32;;;;;;;57.60;2.27;;;;;;;;;;5077717;28;20471;-83
2022/06/02 14:44:14;;;;;;;57.73;2.27;;;;;;;;;;5080787;28;20432;-82
2022/06/02 14:46:53;;;;;;;58.13;2.70;;;;;;;;;;5081227;28;20877;-81
2022/06/02 14:49:35;;;;;;;58.03;2.50;;;;;;;;;;5080252;28;20521;-83
2022/06/02 14:52:10;;;;;;;57.87;2.13;;;;;;;;;;5081554;28;20447;-83
2022/06/02 14:54:49;;;;;;;58.57;2.60;;;;;;;;;;5078221;28;20427;-82
2022/06/02 14:57:24;;;;;;;57.80;2.20;;;;;;;;;;5075580;28;20911;-83
2022/06/02 15:00:00;;;;;;;57.80;2.50;;;;;;;;;;5075767;28;20487;-82
2022/06/02 15:02:39;;;;;;;58.30;2.80;;;;;;;;;;5075188;28;20795;-83
2022/06/02 15:05:30;;;;;;;58.70;2.70;;;;;;;;;;5075744;28;20419;-83
2022/06/02 15:08:07;;;;;;;58.20;2.40;;;;;;;;;;5064684;28;20444;-82
2022/06/02 15:10:38;;;;;;;58.17;2.40;;;;;;;;;;5075856;28;20449;-83
2022/06/02 15:13:13;;;;;;;58.23;2.40;;;;;;;;;;5076624;28;20524;-82
2022/06/02 15:15:49;;;;;;;58.23;2.47;;;;;;;;;;5074534;28;20495;-83
2022/06/02 15:18:35;;;;;;;58.10;2.40;;;;;;;;;;5074942;28;20509;-82
2022/06/02 15:21:05;;;;;;;59.17;3.43;;;;;;;;;;5076745;28;20461;-81
2022/06/02 15:23:55;;;;;;;58.23;2.60;;;;;;;;;;5075723;28;20431;-82
2022/06/02 15:26:37;;;;;;;60.43;3.30;;;;;;;;;;5076944;28;20430;-83
2022/06/02 15:29:13;;;;;;;58.17;2.40;;;;;;;;;;5069618;28;20433;-83
2022/06/02 15:31:50;;;;;;;59.40;2.50;;;;;;;;;;5078319;28;20523;-82
2022/06/02 15:34:30;;;;;;;58.27;2.40;;;;;;;;;;5074194;28;20871;-83
2022/06/02 15:37:30;;;;;;;61.90;2.83;;;;;;;;;;5074052;28;20430;-83
2022/06/02 15:40:11;;;;;;;58.27;2.90;;;;;;;;;;5032118;28;20494;-82